sensor_id;sensor_type;location;lat;lon;timestamp;P1;durP1;ratioP1;P2;durP2;ratioP2
28003;SDS011;15330;51.234;6.754;2022-10-18T00:00:58;18.45;;;11.95;;
28003;SDS011;15330;51.234;6.754;2022-10-18T00:03:24;17.42;;;10.32;;
28003;SDS011;15330;51.234;6.754;2022-10-18T00:05:50;15.45;;;8.88;;
28003;SDS011;15330;51.234;6.754;2022-10-18T00:08:16;17.25;;;10.55;;
28003;SDS011;15330;51.234;6.754;2022-10-18T00:10:42;14.95;;;7.38;;
28003;SDS011;15330;51.234;6.754;2022-10-18T00:13:07;11.85;;;7.30;;
28003;SDS011;15330;51.234;6.754;2022-10-18T00:15:33;11.02;;;7.97;;
28003;SDS011;15330;51.234;6.754;2022-10-18T00:17:58;11.35;;;6.82;;
28003;SDS011;15330;51.234;6.754;2022-10-18T00:20:23;13.68;;;9.23;;
28003;SDS011;15330;51.234;6.754;2022-10-18T00:22:49;12.18;;;7.22;;
28003;SDS011;15330;51.234;6.754;2022-10-18T00:25:16;14.70;;;9.50;;
28003;SDS011;15330;51.234;6.754;2022-10-18T00:27:41;10.55;;;8.45;;
28003;SDS011;15330;51.234;6.754;2022-10-18T00:30:07;9.95;;;7.32;;
28003;SDS011;15330;51.234;6.754;2022-10-18T00:32:36;10.15;;;8.35;;
28003;SDS011;15330;51.234;6.754;2022-10-18T00:35:03;24.25;;;12.95;;
28003;SDS011;15330;51.234;6.754;2022-10-18T00:37:29;11.88;;;7.75;;
28003;SDS011;15330;51.234;6.754;2022-10-18T00:39:55;13.05;;;7.32;;
28003;SDS011;15330;51.234;6.754;2022-10-18T00:42:21;11.95;;;7.80;;
28003;SDS011;15330;51.234;6.754;2022-10-18T00:47:14;15.23;;;8.37;;
28003;SDS011;15330;51.234;6.754;2022-10-18T00:49:52;14.50;;;8.27;;
28003;SDS011;15330;51.234;6.754;2022-10-18T00:52:25;8.93;;;7.30;;
28003;SDS011;15330;51.234;6.754;2022-10-18T00:55:22;17.48;;;7.85;;
28003;SDS011;15330;51.234;6.754;2022-10-18T00:57:48;11.98;;;7.60;;
28003;SDS011;15330;51.234;6.754;2022-10-18T01:00:14;13.43;;;7.55;;
28003;SDS011;15330;51.234;6.754;2022-10-18T01:02:40;12.02;;;8.73;;
28003;SDS011;15330;51.234;6.754;2022-10-18T01:05:09;13.55;;;8.18;;
28003;SDS011;15330;51.234;6.754;2022-10-18T01:07:52;11.82;;;8.55;;
28003;SDS011;15330;51.234;6.754;2022-10-18T01:15:55;16.98;;;8.95;;
28003;SDS011;15330;51.234;6.754;2022-10-18T01:18:53;11.73;;;8.10;;
28003;SDS011;15330;51.234;6.754;2022-10-18T01:32:11;11.93;;;8.45;;
28003;SDS011;15330;51.234;6.754;2022-10-18T01:34:42;15.48;;;8.85;;
28003;SDS011;15330;51.234;6.754;2022-10-18T01:37:10;10.02;;;8.88;;
28003;SDS011;15330;51.234;6.754;2022-10-18T01:39:42;15.75;;;9.40;;
28003;SDS011;15330;51.234;6.754;2022-10-18T01:42:10;12.20;;;9.57;;
28003;SDS011;15330;51.234;6.754;2022-10-18T01:44:37;13.20;;;9.57;;
28003;SDS011;15330;51.234;6.754;2022-10-18T01:47:06;14.85;;;10.10;;
28003;SDS011;15330;51.234;6.754;2022-10-18T01:49:34;20.45;;;10.98;;
28003;SDS011;15330;51.234;6.754;2022-10-18T01:51:59;18.58;;;10.98;;
28003;SDS011;15330;51.234;6.754;2022-10-18T01:54:35;15.07;;;10.13;;
28003;SDS011;15330;51.234;6.754;2022-10-18T02:02:31;20.02;;;11.18;;
28003;SDS011;15330;51.234;6.754;2022-10-18T02:10:45;16.00;;;10.95;;
28003;SDS011;15330;51.234;6.754;2022-10-18T02:13:17;18.50;;;10.68;;
28003;SDS011;15330;51.234;6.754;2022-10-18T02:15:48;15.98;;;11.50;;
28003;SDS011;15330;51.234;6.754;2022-10-18T02:18:24;16.67;;;11.45;;
28003;SDS011;15330;51.234;6.754;2022-10-18T02:20:56;15.57;;;10.73;;
28003;SDS011;15330;51.234;6.754;2022-10-18T02:23:23;17.77;;;11.57;;
28003;SDS011;15330;51.234;6.754;2022-10-18T02:25:50;20.40;;;11.90;;
28003;SDS011;15330;51.234;6.754;2022-10-18T02:28:16;17.55;;;11.52;;
28003;SDS011;15330;51.234;6.754;2022-10-18T02:36:11;19.02;;;12.38;;
28003;SDS011;15330;51.234;6.754;2022-10-18T02:38:43;18.17;;;12.25;;
28003;SDS011;15330;51.234;6.754;2022-10-18T02:41:10;21.45;;;12.43;;
28003;SDS011;15330;51.234;6.754;2022-10-18T02:43:35;20.52;;;12.43;;
28003;SDS011;15330;51.234;6.754;2022-10-18T02:46:01;20.73;;;12.90;;
28003;SDS011;15330;51.234;6.754;2022-10-18T02:48:26;21.60;;;12.23;;
28003;SDS011;15330;51.234;6.754;2022-10-18T02:50:52;19.63;;;12.27;;
28003;SDS011;15330;51.234;6.754;2022-10-18T02:53:17;17.73;;;11.73;;
28003;SDS011;15330;51.234;6.754;2022-10-18T02:55:42;16.63;;;12.98;;
28003;SDS011;15330;51.234;6.754;2022-10-18T02:58:08;16.02;;;11.15;;
28003;SDS011;15330;51.234;6.754;2022-10-18T03:00:33;22.25;;;12.75;;
28003;SDS011;15330;51.234;6.754;2022-10-18T03:02:58;15.85;;;12.02;;
28003;SDS011;15330;51.234;6.754;2022-10-18T03:05:24;21.38;;;13.10;;
28003;SDS011;15330;51.234;6.754;2022-10-18T03:07:49;22.15;;;13.98;;
28003;SDS011;15330;51.234;6.754;2022-10-18T03:10:15;26.65;;;16.15;;
28003;SDS011;15330;51.234;6.754;2022-10-18T03:12:40;21.00;;;14.50;;
28003;SDS011;15330;51.234;6.754;2022-10-18T03:15:05;23.00;;;14.63;;
28003;SDS011;15330;51.234;6.754;2022-10-18T03:17:31;25.02;;;14.20;;
28003;SDS011;15330;51.234;6.754;2022-10-18T03:19:56;26.88;;;18.17;;
28003;SDS011;15330;51.234;6.754;2022-10-18T03:22:22;20.75;;;14.57;;
28003;SDS011;15330;51.234;6.754;2022-10-18T03:24:49;22.33;;;14.43;;
28003;SDS011;15330;51.234;6.754;2022-10-18T03:27:14;20.30;;;13.65;;
28003;SDS011;15330;51.234;6.754;2022-10-18T03:29:39;24.10;;;14.40;;
28003;SDS011;15330;51.234;6.754;2022-10-18T03:32:05;22.63;;;13.88;;
28003;SDS011;15330;51.234;6.754;2022-10-18T03:34:30;20.90;;;13.65;;
28003;SDS011;15330;51.234;6.754;2022-10-18T03:36:55;26.60;;;14.93;;
28003;SDS011;15330;51.234;6.754;2022-10-18T03:39:21;21.35;;;14.13;;
28003;SDS011;15330;51.234;6.754;2022-10-18T03:41:47;22.98;;;14.02;;
28003;SDS011;15330;51.234;6.754;2022-10-18T03:44:12;23.70;;;15.52;;
28003;SDS011;15330;51.234;6.754;2022-10-18T03:46:37;24.98;;;15.10;;
28003;SDS011;15330;51.234;6.754;2022-10-18T03:49:03;27.08;;;15.95;;
28003;SDS011;15330;51.234;6.754;2022-10-18T03:51:28;28.02;;;16.58;;
28003;SDS011;15330;51.234;6.754;2022-10-18T03:53:54;26.58;;;15.40;;
28003;SDS011;15330;51.234;6.754;2022-10-18T03:56:19;24.10;;;15.45;;
28003;SDS011;15330;51.234;6.754;2022-10-18T03:58:44;26.95;;;16.33;;
28003;SDS011;15330;51.234;6.754;2022-10-18T04:01:10;30.17;;;17.60;;
28003;SDS011;15330;51.234;6.754;2022-10-18T04:03:35;30.10;;;17.00;;
28003;SDS011;15330;51.234;6.754;2022-10-18T04:06:00;29.17;;;18.30;;
28003;SDS011;15330;51.234;6.754;2022-10-18T04:08:27;28.52;;;17.55;;
28003;SDS011;15330;51.234;6.754;2022-10-18T04:10:53;33.75;;;18.70;;
28003;SDS011;15330;51.234;6.754;2022-10-18T04:13:18;29.48;;;19.33;;
28003;SDS011;15330;51.234;6.754;2022-10-18T04:15:44;26.58;;;16.00;;
28003;SDS011;15330;51.234;6.754;2022-10-18T04:18:09;28.35;;;16.33;;
28003;SDS011;15330;51.234;6.754;2022-10-18T04:20:34;26.13;;;17.33;;
28003;SDS011;15330;51.234;6.754;2022-10-18T04:23:00;28.10;;;18.05;;
28003;SDS011;15330;51.234;6.754;2022-10-18T04:25:25;38.05;;;19.17;;
28003;SDS011;15330;51.234;6.754;2022-10-18T04:27:50;29.38;;;18.08;;
28003;SDS011;15330;51.234;6.754;2022-10-18T04:30:16;25.83;;;16.80;;
28003;SDS011;15330;51.234;6.754;2022-10-18T04:32:41;31.67;;;17.67;;
28003;SDS011;15330;51.234;6.754;2022-10-18T04:35:07;31.77;;;16.58;;
28003;SDS011;15330;51.234;6.754;2022-10-18T04:37:33;27.38;;;16.50;;
28003;SDS011;15330;51.234;6.754;2022-10-18T04:39:59;29.55;;;17.65;;
28003;SDS011;15330;51.234;6.754;2022-10-18T04:42:25;29.10;;;17.35;;
28003;SDS011;15330;51.234;6.754;2022-10-18T04:44:50;30.50;;;18.33;;
28003;SDS011;15330;51.234;6.754;2022-10-18T04:47:16;31.92;;;19.25;;
28003;SDS011;15330;51.234;6.754;2022-10-18T04:49:41;30.10;;;18.83;;
28003;SDS011;15330;51.234;6.754;2022-10-18T04:52:07;32.75;;;20.13;;
28003;SDS011;15330;51.234;6.754;2022-10-18T04:54:33;29.88;;;17.95;;
28003;SDS011;15330;51.234;6.754;2022-10-18T04:56:59;35.00;;;20.13;;
28003;SDS011;15330;51.234;6.754;2022-10-18T04:59:24;37.88;;;20.58;;
28003;SDS011;15330;51.234;6.754;2022-10-18T05:01:50;38.25;;;19.48;;
28003;SDS011;15330;51.234;6.754;2022-10-18T05:04:15;36.65;;;21.35;;
28003;SDS011;15330;51.234;6.754;2022-10-18T05:06:40;39.58;;;22.10;;
28003;SDS011;15330;51.234;6.754;2022-10-18T05:09:06;32.00;;;18.10;;
28003;SDS011;15330;51.234;6.754;2022-10-18T05:11:31;34.70;;;19.65;;
28003;SDS011;15330;51.234;6.754;2022-10-18T05:13:56;36.97;;;21.52;;
28003;SDS011;15330;51.234;6.754;2022-10-18T05:16:22;41.97;;;22.63;;
28003;SDS011;15330;51.234;6.754;2022-10-18T05:18:47;38.58;;;20.30;;
28003;SDS011;15330;51.234;6.754;2022-10-18T05:21:13;40.58;;;22.42;;
28003;SDS011;15330;51.234;6.754;2022-10-18T05:23:38;35.65;;;20.85;;
28003;SDS011;15330;51.234;6.754;2022-10-18T05:26:04;39.20;;;22.33;;
28003;SDS011;15330;51.234;6.754;2022-10-18T05:28:30;58.70;;;34.10;;
28003;SDS011;15330;51.234;6.754;2022-10-18T05:31:03;40.08;;;23.42;;
28003;SDS011;15330;51.234;6.754;2022-10-18T05:33:30;48.95;;;25.35;;
28003;SDS011;15330;51.234;6.754;2022-10-18T05:35:56;45.75;;;24.67;;
28003;SDS011;15330;51.234;6.754;2022-10-18T05:38:22;37.92;;;21.42;;
28003;SDS011;15330;51.234;6.754;2022-10-18T05:40:47;37.58;;;22.45;;
28003;SDS011;15330;51.234;6.754;2022-10-18T05:43:13;41.83;;;24.05;;
28003;SDS011;15330;51.234;6.754;2022-10-18T05:45:38;40.03;;;22.55;;
28003;SDS011;15330;51.234;6.754;2022-10-18T05:48:04;42.78;;;23.00;;
28003;SDS011;15330;51.234;6.754;2022-10-18T05:50:31;41.85;;;22.77;;
28003;SDS011;15330;51.234;6.754;2022-10-18T05:52:57;35.95;;;20.95;;
28003;SDS011;15330;51.234;6.754;2022-10-18T05:55:22;38.15;;;22.75;;
28003;SDS011;15330;51.234;6.754;2022-10-18T05:57:48;34.88;;;20.88;;
28003;SDS011;15330;51.234;6.754;2022-10-18T06:00:14;39.83;;;21.08;;
28003;SDS011;15330;51.234;6.754;2022-10-18T06:02:40;51.40;;;29.63;;
28003;SDS011;15330;51.234;6.754;2022-10-18T06:05:06;32.40;;;20.20;;
28003;SDS011;15330;51.234;6.754;2022-10-18T06:07:31;39.40;;;22.67;;
28003;SDS011;15330;51.234;6.754;2022-10-18T06:09:56;42.30;;;25.95;;
28003;SDS011;15330;51.234;6.754;2022-10-18T06:12:22;35.63;;;22.40;;
28003;SDS011;15330;51.234;6.754;2022-10-18T06:14:47;38.90;;;22.35;;
28003;SDS011;15330;51.234;6.754;2022-10-18T06:17:13;39.28;;;24.23;;
28003;SDS011;15330;51.234;6.754;2022-10-18T06:19:38;45.17;;;27.00;;
28003;SDS011;15330;51.234;6.754;2022-10-18T06:22:04;36.65;;;23.35;;
28003;SDS011;15330;51.234;6.754;2022-10-18T06:24:29;35.58;;;21.70;;
28003;SDS011;15330;51.234;6.754;2022-10-18T06:26:55;40.83;;;24.65;;
28003;SDS011;15330;51.234;6.754;2022-10-18T06:29:21;36.63;;;22.08;;
28003;SDS011;15330;51.234;6.754;2022-10-18T06:31:46;37.05;;;22.17;;
28003;SDS011;15330;51.234;6.754;2022-10-18T06:34:12;38.45;;;22.15;;
28003;SDS011;15330;51.234;6.754;2022-10-18T06:36:37;37.92;;;22.88;;
28003;SDS011;15330;51.234;6.754;2022-10-18T06:39:02;36.72;;;21.83;;
28003;SDS011;15330;51.234;6.754;2022-10-18T06:41:28;33.05;;;21.42;;
28003;SDS011;15330;51.234;6.754;2022-10-18T06:43:53;34.35;;;21.73;;
28003;SDS011;15330;51.234;6.754;2022-10-18T06:46:21;42.55;;;21.63;;
28003;SDS011;15330;51.234;6.754;2022-10-18T06:48:47;35.55;;;21.77;;
28003;SDS011;15330;51.234;6.754;2022-10-18T06:51:12;31.52;;;21.30;;
28003;SDS011;15330;51.234;6.754;2022-10-18T06:53:44;36.35;;;22.42;;
28003;SDS011;15330;51.234;6.754;2022-10-18T06:56:10;38.55;;;23.02;;
28003;SDS011;15330;51.234;6.754;2022-10-18T06:58:36;35.58;;;22.88;;
28003;SDS011;15330;51.234;6.754;2022-10-18T07:01:06;33.40;;;22.15;;
28003;SDS011;15330;51.234;6.754;2022-10-18T07:03:33;37.13;;;22.17;;
28003;SDS011;15330;51.234;6.754;2022-10-18T07:06:02;33.75;;;21.52;;
28003;SDS011;15330;51.234;6.754;2022-10-18T07:08:29;34.78;;;23.15;;
28003;SDS011;15330;51.234;6.754;2022-10-18T07:10:54;31.90;;;21.65;;
28003;SDS011;15330;51.234;6.754;2022-10-18T07:13:20;38.40;;;23.10;;
28003;SDS011;15330;51.234;6.754;2022-10-18T07:15:46;37.83;;;22.77;;
28003;SDS011;15330;51.234;6.754;2022-10-18T07:18:11;36.40;;;23.77;;
28003;SDS011;15330;51.234;6.754;2022-10-18T07:20:37;37.38;;;21.52;;
28003;SDS011;15330;51.234;6.754;2022-10-18T07:23:02;31.50;;;21.02;;
28003;SDS011;15330;51.234;6.754;2022-10-18T07:25:31;34.63;;;21.98;;
28003;SDS011;15330;51.234;6.754;2022-10-18T07:27:56;36.83;;;21.70;;
28003;SDS011;15330;51.234;6.754;2022-10-18T07:30:21;36.40;;;23.88;;
28003;SDS011;15330;51.234;6.754;2022-10-18T07:32:47;41.30;;;23.75;;
28003;SDS011;15330;51.234;6.754;2022-10-18T07:35:15;35.60;;;22.98;;
28003;SDS011;15330;51.234;6.754;2022-10-18T07:37:40;37.53;;;24.48;;
28003;SDS011;15330;51.234;6.754;2022-10-18T07:40:06;34.28;;;25.02;;
28003;SDS011;15330;51.234;6.754;2022-10-18T07:42:33;39.83;;;24.60;;
28003;SDS011;15330;51.234;6.754;2022-10-18T07:44:59;49.25;;;31.08;;
28003;SDS011;15330;51.234;6.754;2022-10-18T07:47:25;39.42;;;25.48;;
28003;SDS011;15330;51.234;6.754;2022-10-18T07:49:50;43.95;;;26.38;;
28003;SDS011;15330;51.234;6.754;2022-10-18T07:52:15;41.97;;;26.33;;
28003;SDS011;15330;51.234;6.754;2022-10-18T07:54:41;46.50;;;27.65;;
28003;SDS011;15330;51.234;6.754;2022-10-18T07:57:06;48.15;;;28.85;;
28003;SDS011;15330;51.234;6.754;2022-10-18T07:59:31;52.45;;;31.02;;
28003;SDS011;15330;51.234;6.754;2022-10-18T08:01:57;49.17;;;29.00;;
28003;SDS011;15330;51.234;6.754;2022-10-18T08:04:22;51.75;;;31.38;;
28003;SDS011;15330;51.234;6.754;2022-10-18T08:06:47;56.80;;;35.00;;
28003;SDS011;15330;51.234;6.754;2022-10-18T08:09:13;58.78;;;35.83;;
28003;SDS011;15330;51.234;6.754;2022-10-18T08:11:38;58.40;;;34.83;;
28003;SDS011;15330;51.234;6.754;2022-10-18T08:14:03;66.97;;;36.42;;
28003;SDS011;15330;51.234;6.754;2022-10-18T08:16:29;55.42;;;33.90;;
28003;SDS011;15330;51.234;6.754;2022-10-18T08:18:58;58.28;;;31.23;;
28003;SDS011;15330;51.234;6.754;2022-10-18T08:21:24;49.38;;;31.70;;
28003;SDS011;15330;51.234;6.754;2022-10-18T08:23:50;53.10;;;31.35;;
28003;SDS011;15330;51.234;6.754;2022-10-18T08:26:16;60.25;;;34.90;;
28003;SDS011;15330;51.234;6.754;2022-10-18T08:28:43;64.18;;;36.63;;
28003;SDS011;15330;51.234;6.754;2022-10-18T08:31:10;74.60;;;41.65;;
28003;SDS011;15330;51.234;6.754;2022-10-18T08:33:37;70.95;;;38.97;;
28003;SDS011;15330;51.234;6.754;2022-10-18T08:36:04;82.75;;;48.22;;
28003;SDS011;15330;51.234;6.754;2022-10-18T08:38:31;74.18;;;41.50;;
28003;SDS011;15330;51.234;6.754;2022-10-18T08:41:12;67.15;;;39.53;;
28003;SDS011;15330;51.234;6.754;2022-10-18T08:43:57;71.18;;;39.50;;
28003;SDS011;15330;51.234;6.754;2022-10-18T08:46:36;69.10;;;40.65;;
28003;SDS011;15330;51.234;6.754;2022-10-18T08:49:05;66.68;;;42.17;;
28003;SDS011;15330;51.234;6.754;2022-10-18T08:51:46;74.10;;;43.95;;
28003;SDS011;15330;51.234;6.754;2022-10-18T08:54:23;79.35;;;45.35;;
28003;SDS011;15330;51.234;6.754;2022-10-18T08:57:04;67.07;;;40.75;;
28003;SDS011;15330;51.234;6.754;2022-10-18T08:59:39;75.20;;;43.28;;
28003;SDS011;15330;51.234;6.754;2022-10-18T09:04:45;82.20;;;46.47;;
28003;SDS011;15330;51.234;6.754;2022-10-18T09:12:54;79.03;;;43.78;;
28003;SDS011;15330;51.234;6.754;2022-10-18T09:22:04;86.90;;;49.13;;
28003;SDS011;15330;51.234;6.754;2022-10-18T09:24:20;95.27;;;53.73;;
28003;SDS011;15330;51.234;6.754;2022-10-18T09:26:47;86.35;;;50.20;;
28003;SDS011;15330;51.234;6.754;2022-10-18T09:32:23;94.72;;;53.75;;
28003;SDS011;15330;51.234;6.754;2022-10-18T09:35:01;98.18;;;53.47;;
28003;SDS011;15330;51.234;6.754;2022-10-18T09:37:46;109.68;;;57.78;;
28003;SDS011;15330;51.234;6.754;2022-10-18T09:40:20;112.05;;;57.53;;
28003;SDS011;15330;51.234;6.754;2022-10-18T09:42:54;113.75;;;59.40;;
28003;SDS011;15330;51.234;6.754;2022-10-18T09:45:26;121.47;;;61.55;;
28003;SDS011;15330;51.234;6.754;2022-10-18T09:50:22;131.40;;;63.45;;
28003;SDS011;15330;51.234;6.754;2022-10-18T09:55:35;150.35;;;70.82;;
28003;SDS011;15330;51.234;6.754;2022-10-18T09:58:07;173.82;;;75.65;;
28003;SDS011;15330;51.234;6.754;2022-10-18T10:00:46;168.95;;;75.90;;
28003;SDS011;15330;51.234;6.754;2022-10-18T10:03:13;180.75;;;78.05;;
28003;SDS011;15330;51.234;6.754;2022-10-18T10:05:40;183.40;;;76.65;;
28003;SDS011;15330;51.234;6.754;2022-10-18T10:08:06;184.35;;;76.22;;
28003;SDS011;15330;51.234;6.754;2022-10-18T10:10:32;184.40;;;75.60;;
28003;SDS011;15330;51.234;6.754;2022-10-18T10:15:38;183.65;;;78.22;;
28003;SDS011;15330;51.234;6.754;2022-10-18T10:18:17;180.25;;;76.25;;
28003;SDS011;15330;51.234;6.754;2022-10-18T10:20:46;182.45;;;76.03;;
28003;SDS011;15330;51.234;6.754;2022-10-18T10:26:26;183.60;;;75.95;;
28003;SDS011;15330;51.234;6.754;2022-10-18T10:28:56;174.27;;;75.95;;
28003;SDS011;15330;51.234;6.754;2022-10-18T10:34:00;164.93;;;74.93;;
28003;SDS011;15330;51.234;6.754;2022-10-18T10:36:29;162.20;;;74.60;;
28003;SDS011;15330;51.234;6.754;2022-10-18T10:39:12;159.18;;;72.07;;
28003;SDS011;15330;51.234;6.754;2022-10-18T10:41:42;160.13;;;72.53;;
28003;SDS011;15330;51.234;6.754;2022-10-18T10:44:25;150.05;;;68.90;;
28003;SDS011;15330;51.234;6.754;2022-10-18T10:46:56;146.75;;;66.30;;
28003;SDS011;15330;51.234;6.754;2022-10-18T10:49:24;146.35;;;65.97;;
28003;SDS011;15330;51.234;6.754;2022-10-18T10:52:02;129.90;;;60.22;;
28003;SDS011;15330;51.234;6.754;2022-10-18T10:54:28;122.05;;;56.58;;
28003;SDS011;15330;51.234;6.754;2022-10-18T11:04:41;100.88;;;49.72;;
28003;SDS011;15330;51.234;6.754;2022-10-18T11:09:44;82.40;;;44.30;;
28003;SDS011;15330;51.234;6.754;2022-10-18T11:14:58;72.05;;;40.97;;
28003;SDS011;15330;51.234;6.754;2022-10-18T11:25:20;51.38;;;28.98;;
28003;SDS011;15330;51.234;6.754;2022-10-18T11:28:00;43.67;;;27.92;;
28003;SDS011;15330;51.234;6.754;2022-10-18T11:30:41;42.22;;;27.33;;
28003;SDS011;15330;51.234;6.754;2022-10-18T11:33:30;44.60;;;26.52;;
28003;SDS011;15330;51.234;6.754;2022-10-18T11:36:14;38.28;;;24.38;;
28003;SDS011;15330;51.234;6.754;2022-10-18T11:39:14;38.45;;;24.50;;
28003;SDS011;15330;51.234;6.754;2022-10-18T11:44:41;40.40;;;25.40;;
28003;SDS011;15330;51.234;6.754;2022-10-18T11:47:35;38.35;;;24.10;;
28003;SDS011;15330;51.234;6.754;2022-10-18T12:00:54;38.20;;;23.77;;
28003;SDS011;15330;51.234;6.754;2022-10-18T12:06:05;37.67;;;21.83;;
28003;SDS011;15330;51.234;6.754;2022-10-18T12:08:39;34.55;;;20.60;;
28003;SDS011;15330;51.234;6.754;2022-10-18T12:11:32;35.53;;;20.50;;
28003;SDS011;15330;51.234;6.754;2022-10-18T12:16:53;25.52;;;16.58;;
28003;SDS011;15330;51.234;6.754;2022-10-18T12:19:23;25.83;;;14.52;;
28003;SDS011;15330;51.234;6.754;2022-10-18T12:21:51;23.95;;;14.93;;
28003;SDS011;15330;51.234;6.754;2022-10-18T12:24:21;18.58;;;12.27;;
28003;SDS011;15330;51.234;6.754;2022-10-18T12:26:50;21.50;;;13.48;;
28003;SDS011;15330;51.234;6.754;2022-10-18T12:32:09;31.45;;;14.52;;
28003;SDS011;15330;51.234;6.754;2022-10-18T12:40:10;33.55;;;15.90;;
28003;SDS011;15330;51.234;6.754;2022-10-18T12:45:22;28.25;;;15.13;;
28003;SDS011;15330;51.234;6.754;2022-10-18T12:47:48;23.50;;;14.02;;
28003;SDS011;15330;51.234;6.754;2022-10-18T12:50:30;26.27;;;14.98;;
28003;SDS011;15330;51.234;6.754;2022-10-18T12:53:13;27.42;;;13.82;;
28003;SDS011;15330;51.234;6.754;2022-10-18T12:55:42;24.15;;;13.40;;
28003;SDS011;15330;51.234;6.754;2022-10-18T13:05:56;22.92;;;13.95;;
28003;SDS011;15330;51.234;6.754;2022-10-18T13:32:49;25.35;;;12.15;;
28003;SDS011;15330;51.234;6.754;2022-10-18T13:35:50;21.85;;;11.73;;
28003;SDS011;15330;51.234;6.754;2022-10-18T13:44:23;16.80;;;9.05;;
28003;SDS011;15330;51.234;6.754;2022-10-18T14:00:03;16.65;;;8.77;;
28003;SDS011;15330;51.234;6.754;2022-10-18T14:02:39;22.08;;;9.32;;
28003;SDS011;15330;51.234;6.754;2022-10-18T14:08:01;24.80;;;7.80;;
28003;SDS011;15330;51.234;6.754;2022-10-18T14:13:13;14.32;;;7.88;;
28003;SDS011;15330;51.234;6.754;2022-10-18T14:15:44;20.08;;;9.02;;
28003;SDS011;15330;51.234;6.754;2022-10-18T14:18:17;19.55;;;9.88;;
28003;SDS011;15330;51.234;6.754;2022-10-18T14:20:57;17.60;;;8.35;;
28003;SDS011;15330;51.234;6.754;2022-10-18T14:23:30;18.50;;;10.52;;
28003;SDS011;15330;51.234;6.754;2022-10-18T14:26:07;17.92;;;8.38;;
28003;SDS011;15330;51.234;6.754;2022-10-18T14:28:37;21.08;;;9.00;;
28003;SDS011;15330;51.234;6.754;2022-10-18T14:31:10;17.60;;;9.15;;
28003;SDS011;15330;51.234;6.754;2022-10-18T14:33:38;20.73;;;9.70;;
28003;SDS011;15330;51.234;6.754;2022-10-18T14:36:07;19.25;;;8.82;;
28003;SDS011;15330;51.234;6.754;2022-10-18T14:38:54;22.85;;;8.88;;
28003;SDS011;15330;51.234;6.754;2022-10-18T14:41:23;21.38;;;8.52;;
28003;SDS011;15330;51.234;6.754;2022-10-18T14:43:49;24.42;;;9.25;;
28003;SDS011;15330;51.234;6.754;2022-10-18T14:46:22;17.08;;;7.85;;
28003;SDS011;15330;51.234;6.754;2022-10-18T14:48:52;17.08;;;7.35;;
28003;SDS011;15330;51.234;6.754;2022-10-18T14:51:25;18.92;;;7.30;;
28003;SDS011;15330;51.234;6.754;2022-10-18T14:53:54;15.55;;;5.38;;
28003;SDS011;15330;51.234;6.754;2022-10-18T14:56:26;10.82;;;4.97;;
28003;SDS011;15330;51.234;6.754;2022-10-18T14:58:59;16.83;;;5.75;;
28003;SDS011;15330;51.234;6.754;2022-10-18T15:01:28;19.77;;;6.93;;
28003;SDS011;15330;51.234;6.754;2022-10-18T15:03:58;20.45;;;7.00;;
28003;SDS011;15330;51.234;6.754;2022-10-18T15:06:26;15.80;;;5.72;;
28003;SDS011;15330;51.234;6.754;2022-10-18T15:08:54;22.00;;;6.13;;
28003;SDS011;15330;51.234;6.754;2022-10-18T15:11:22;18.90;;;5.50;;
28003;SDS011;15330;51.234;6.754;2022-10-18T15:13:51;17.55;;;6.55;;
28003;SDS011;15330;51.234;6.754;2022-10-18T15:16:19;18.08;;;5.65;;
28003;SDS011;15330;51.234;6.754;2022-10-18T15:18:58;17.98;;;5.85;;
28003;SDS011;15330;51.234;6.754;2022-10-18T15:21:57;15.95;;;5.40;;
28003;SDS011;15330;51.234;6.754;2022-10-18T15:24:29;14.30;;;4.80;;
28003;SDS011;15330;51.234;6.754;2022-10-18T15:27:21;11.88;;;4.70;;
28003;SDS011;15330;51.234;6.754;2022-10-18T15:29:50;18.55;;;4.95;;
28003;SDS011;15330;51.234;6.754;2022-10-18T15:32:28;13.65;;;4.93;;
28003;SDS011;15330;51.234;6.754;2022-10-18T15:35:05;16.13;;;5.38;;
28003;SDS011;15330;51.234;6.754;2022-10-18T15:37:40;13.10;;;5.28;;
28003;SDS011;15330;51.234;6.754;2022-10-18T15:40:24;15.27;;;5.70;;
28003;SDS011;15330;51.234;6.754;2022-10-18T15:42:53;20.92;;;6.80;;
28003;SDS011;15330;51.234;6.754;2022-10-18T15:50:40;13.90;;;5.25;;
28003;SDS011;15330;51.234;6.754;2022-10-18T15:55:56;16.67;;;5.80;;
28003;SDS011;15330;51.234;6.754;2022-10-18T15:58:28;17.85;;;7.72;;
28003;SDS011;15330;51.234;6.754;2022-10-18T16:01:21;14.88;;;4.10;;
28003;SDS011;15330;51.234;6.754;2022-10-18T16:03:50;21.75;;;7.82;;
28003;SDS011;15330;51.234;6.754;2022-10-18T16:06:16;20.05;;;5.05;;
28003;SDS011;15330;51.234;6.754;2022-10-18T16:08:45;20.73;;;5.25;;
28003;SDS011;15330;51.234;6.754;2022-10-18T16:11:13;13.93;;;6.47;;
28003;SDS011;15330;51.234;6.754;2022-10-18T16:13:41;16.52;;;4.70;;
28003;SDS011;15330;51.234;6.754;2022-10-18T16:16:10;14.70;;;4.50;;
28003;SDS011;15330;51.234;6.754;2022-10-18T16:18:40;11.35;;;4.57;;
28003;SDS011;15330;51.234;6.754;2022-10-18T16:21:11;10.45;;;4.70;;
28003;SDS011;15330;51.234;6.754;2022-10-18T16:23:49;11.70;;;4.03;;
28003;SDS011;15330;51.234;6.754;2022-10-18T16:26:16;13.55;;;4.50;;
28003;SDS011;15330;51.234;6.754;2022-10-18T16:28:42;19.13;;;4.97;;
28003;SDS011;15330;51.234;6.754;2022-10-18T16:31:09;11.68;;;5.32;;
28003;SDS011;15330;51.234;6.754;2022-10-18T16:33:39;14.20;;;4.90;;
28003;SDS011;15330;51.234;6.754;2022-10-18T16:36:04;21.65;;;8.10;;
28003;SDS011;15330;51.234;6.754;2022-10-18T16:38:31;15.52;;;7.22;;
28003;SDS011;15330;51.234;6.754;2022-10-18T16:40:59;12.77;;;5.50;;
28003;SDS011;15330;51.234;6.754;2022-10-18T16:43:25;17.15;;;6.15;;
28003;SDS011;15330;51.234;6.754;2022-10-18T16:45:51;17.70;;;6.35;;
28003;SDS011;15330;51.234;6.754;2022-10-18T16:48:18;17.55;;;6.93;;
28003;SDS011;15330;51.234;6.754;2022-10-18T16:50:46;18.05;;;7.13;;
28003;SDS011;15330;51.234;6.754;2022-10-18T16:53:11;12.90;;;5.57;;
28003;SDS011;15330;51.234;6.754;2022-10-18T16:55:37;25.55;;;9.80;;
28003;SDS011;15330;51.234;6.754;2022-10-18T16:58:05;22.73;;;7.80;;
28003;SDS011;15330;51.234;6.754;2022-10-18T17:00:31;21.20;;;6.63;;
28003;SDS011;15330;51.234;6.754;2022-10-18T17:02:57;20.17;;;6.70;;
28003;SDS011;15330;51.234;6.754;2022-10-18T17:05:22;13.73;;;5.75;;
28003;SDS011;15330;51.234;6.754;2022-10-18T17:07:48;15.77;;;7.32;;
28003;SDS011;15330;51.234;6.754;2022-10-18T17:10:15;16.60;;;6.88;;
28003;SDS011;15330;51.234;6.754;2022-10-18T17:12:43;12.35;;;5.32;;
28003;SDS011;15330;51.234;6.754;2022-10-18T17:15:09;12.57;;;5.00;;
28003;SDS011;15330;51.234;6.754;2022-10-18T17:17:36;17.45;;;5.45;;
28003;SDS011;15330;51.234;6.754;2022-10-18T17:20:02;13.43;;;4.78;;
28003;SDS011;15330;51.234;6.754;2022-10-18T17:22:29;16.88;;;6.35;;
28003;SDS011;15330;51.234;6.754;2022-10-18T17:24:54;17.20;;;5.95;;
28003;SDS011;15330;51.234;6.754;2022-10-18T17:27:20;12.77;;;5.07;;
28003;SDS011;15330;51.234;6.754;2022-10-18T17:29:45;19.83;;;7.40;;
28003;SDS011;15330;51.234;6.754;2022-10-18T17:32:10;13.63;;;7.22;;
28003;SDS011;15330;51.234;6.754;2022-10-18T17:34:36;17.38;;;7.28;;
28003;SDS011;15330;51.234;6.754;2022-10-18T17:37:02;19.35;;;6.57;;
28003;SDS011;15330;51.234;6.754;2022-10-18T17:39:28;17.77;;;5.75;;